| time (UTC) | temp F | wind direction | speed knots | gust knots | rain 1hr in | rain 24hr in | rain mn in | humidity % | barometer mb |
| 20260905184521 | 80 | 339 | 0.0 | 13.0 | 0.13 | 0.13 | 0.13 | 73 | 1009.6 |
| 20260905184012 | 85 | 164 | 0.9 | 13.0 | 0.03 | 0.03 | 0.03 | 61 | 1009.4 |
| 20260905183513 | 89 | 44 | 0.0 | 13.0 | 0.00 | 0.00 | 0.00 | 56 | 1009.9 |
| 20260905183011 | 92 | 320 | 3.5 | 11.3 | 0.00 | 0.00 | 0.00 | 56 | 1009.1 |
| 20260905182511 | 93 | 354 | 0.0 | 0.0 | 0.00 | 0.00 | 0.00 | 57 | 1008.1 |
| 20260905182011 | 94 | 64 | 0.0 | 0.9 | 0.00 | 0.00 | 0.00 | 57 | 1008.2 |
| 20260905181509 | 95 | 18 | 0.0 | 2.6 | 0.00 | 0.00 | 0.00 | 52 | 1008.4 |
| 20260905181009 | 96 | 184 | 0.0 | 2.6 | 0.00 | 0.00 | 0.00 | 50 | 1008.6 |
| 20260905180508 | 97 | 169 | 0.0 | 7.0 | 0.00 | 0.00 | 0.00 | 49 | 1008.7 |
| 20260905180009 | 98 | 314 | 0.0 | 7.0 | 0.00 | 0.00 | 0.00 | 47 | 1009.0 |
| 20260905175508 | 98 | 348 | 0.0 | 4.3 | 0.00 | 0.00 | 0.00 | 49 | 1009.1 |
| 20260905175008 | 97 | 14 | 0.0 | 1.7 | 0.00 | 0.00 | 0.00 | 51 | 1008.8 |
| 20260905174504 | 97 | 121 | 0.0 | 0.9 | 0.00 | 0.00 | 0.00 | 50 | 1008.8 |
| 20260905174002 | 97 | 92 | 0.0 | 0.9 | 0.00 | 0.00 | 0.00 | 49 | 1008.9 |
| 20260905173502 | 97 | 70 | 0.0 | 0.9 | 0.00 | 0.00 | 0.00 | 51 | 1009.2 |
| 20260905173100 | 96 | 71 | 0.0 | 4.3 | 0.00 | 0.00 | 0.00 | 53 | 1009.3 |
| 20260905172558 | 96 | 48 | 0.0 | 7.0 | 0.00 | 0.00 | 0.00 | 53 | 1009.7 |
| 20260905172058 | 96 | 20 | 1.7 | 7.0 | 0.00 | 0.00 | 0.00 | 53 | 1009.8 |
| 20260905171558 | 96 | 18 | 0.0 | 0.9 | 0.00 | 0.00 | 0.00 | 51 | 1009.8 |
| 20260905171057 | 96 | 356 | 0.0 | 1.7 | 0.00 | 0.00 | 0.00 | 52 | 1010.0 |
| 20260905170556 | 96 | 160 | 0.0 | 1.7 | 0.00 | 0.00 | 0.00 | 51 | 1010.1 |
| 20260905170100 | 96 | 316 | 0.0 | 2.6 | 0.00 | 0.00 | 0.00 | 51 | 1010.0 |
| 20260905165555 | 96 | 29 | 0.0 | 3.5 | 0.00 | 0.00 | 0.00 | 53 | 1010.1 |
| 20260905165054 | 95 | 44 | 0.0 | 3.5 | 0.00 | 0.00 | 0.00 | 53 | 1010.2 |
| 20260905164553 | 96 | 176 | 0.0 | 0.9 | 0.00 | 0.00 | 0.00 | 53 | 1010.1 |
| 20260905164050 | 96 | 37 | 0.0 | 0.9 | 0.00 | 0.00 | 0.00 | 53 | 1010.2 |
| 20260905163553 | 95 | 11 | 0.0 | 0.0 | 0.00 | 0.00 | 0.00 | 55 | 1010.3 |
| 20260905163048 | 94 | 260 | 0.0 | 0.0 | 0.00 | 0.00 | 0.00 | 55 | 1010.3 |
| 20260905162549 | 94 | 183 | 0.0 | 5.2 | 0.00 | 0.00 | 0.00 | 56 | 1010.4 |
| 20260905162047 | 94 | 17 | 0.0 | 5.2 | 0.00 | 0.00 | 0.00 | 55 | 1010.5 |
| 20260905161544 | 93 | 11 | 0.0 | 2.6 | 0.00 | 0.00 | 0.00 | 58 | 1010.6 |
| 20260905161043 | 93 | 182 | 0.0 | 0.9 | 0.00 | 0.00 | 0.00 | 56 | 1010.6 |
| 20260905160541 | 92 | 302 | 0.0 | 4.3 | 0.00 | 0.00 | 0.00 | 59 | 1010.6 |
| 20260905160040 | 92 | 201 | 0.0 | 1.7 | 0.00 | 0.00 | 0.00 | 59 | 1010.6 |
| 20260905155539 | 92 | 67 | 0.0 | 4.3 | 0.00 | 0.00 | 0.00 | 60 | 1010.7 |
| 20260905155037 | 91 | 162 | 0.0 | 4.3 | 0.00 | 0.00 | 0.00 | 60 | 1010.7 |
| 20260905154535 | 91 | 182 | 0.0 | 0.0 | 0.00 | 0.00 | 0.00 | 60 | 1010.8 |
| 20260905154034 | 90 | 203 | 0.0 | 0.0 | 0.00 | 0.00 | 0.00 | 63 | 1010.8 |
| 20260905153533 | 90 | 349 | 0.0 | 0.9 | 0.00 | 0.00 | 0.00 | 64 | 1010.8 |
| 20260905153044 | 89 | 144 | 0.0 | 0.9 | 0.00 | 0.00 | 0.00 | 64 | 1010.9 |
| 20260905152530 | 89 | 179 | 0.0 | 0.0 | 0.00 | 0.00 | 0.00 | 63 | 1010.8 |
| 20260905152033 | 88 | 204 | 0.0 | 0.0 | 0.00 | 0.00 | 0.00 | 66 | 1010.8 |
| 20260905151527 | 87 | 204 | 0.0 | 0.0 | 0.00 | 0.00 | 0.00 | 69 | 1011.0 |
| 20260905151026 | 87 | 94 | 0.0 | 0.9 | 0.00 | 0.00 | 0.00 | 70 | 1011.1 |
| 20260905150524 | 86 | 186 | 0.0 | 0.9 | 0.00 | 0.00 | 0.00 | 70 | 1011.2 |
| 20260905150022 | 85 | 153 | 0.0 | 2.6 | 0.00 | 0.00 | 0.00 | 73 | 1011.2 |
| 20260905145522 | 84 | 150 | 0.0 | 2.6 | 0.00 | 0.00 | 0.00 | 74 | 1011.3 |
| 20260905145020 | 84 | 194 | 0.0 | 0.0 | 0.00 | 0.00 | 0.00 | 75 | 1011.3 |
| 20260905144524 | 83 | 146 | 0.0 | 0.9 | 0.00 | 0.00 | 0.00 | 76 | 1011.3 |
| 20260905144016 | 82 | 162 | 0.0 | 0.0 | 0.00 | 0.00 | 0.00 | 77 | 1011.2 |
| 20260905143517 | 82 | 164 | 0.0 | 0.0 | 0.00 | 0.00 | 0.00 | 81 | 1011.3 |
| 20260905143014 | 81 | 203 | 0.0 | 0.0 | 0.00 | 0.00 | 0.00 | 80 | 1011.3 |
| 20260905142512 | 81 | 172 | 0.0 | 0.0 | 0.00 | 0.00 | 0.00 | 81 | 1011.1 |
| 20260905142011 | 80 | 186 | 0.0 | 0.0 | 0.00 | 0.00 | 0.00 | 82 | 1011.1 |
| 20260905141510 | 80 | 186 | 0.0 | 0.0 | 0.00 | 0.00 | 0.00 | 83 | 1011.1 |
| 20260905141009 | 79 | 186 | 0.0 | 0.0 | 0.00 | 0.00 | 0.00 | 84 | 1011.0 |
| 20260905140508 | 79 | 173 | 0.0 | 0.0 | 0.00 | 0.00 | 0.00 | 84 | 1011.0 |
| 20260905140006 | 78 | 212 | 0.0 | 0.0 | 0.00 | 0.00 | 0.00 | 86 | 1011.0 |
| 20260905135505 | 77 | 212 | 0.0 | 0.0 | 0.00 | 0.00 | 0.00 | 87 | 1011.2 |
| 20260905135003 | 77 | 178 | 0.0 | 0.9 | 0.00 | 0.00 | 0.00 | 88 | 1011.1 |
| 20260905134502 | 76 | 169 | 0.0 | 0.9 | 0.00 | 0.00 | 0.00 | 88 | 1011.2 |
| 20260905134100 | 76 | 192 | 0.0 | 0.0 | 0.00 | 0.00 | 0.00 | 90 | 1011.2 |
| 20260905133558 | 75 | 207 | 0.0 | 0.0 | 0.00 | 0.00 | 0.00 | 91 | 1011.2 |
| 20260905133059 | 74 | 207 | 0.0 | 0.0 | 0.00 | 0.00 | 0.00 | 92 | 1011.2 |
| 20260905132557 | 74 | 176 | 0.0 | 0.0 | 0.00 | 0.00 | 0.00 | 93 | 1011.2 |
| 20260905132059 | 73 | 188 | 0.0 | 0.9 | 0.00 | 0.00 | 0.00 | 94 | 1011.3 |
| 20260905131613 | 73 | 192 | 0.0 | 0.9 | 0.00 | 0.00 | 0.00 | 96 | 1011.3 |
| 20260905131054 | 72 | 192 | 0.0 | 0.0 | 0.00 | 0.00 | 0.00 | 96 | 1011.3 |
| 20260905130554 | 72 | 191 | 0.0 | 0.0 | 0.00 | 0.00 | 0.00 | 96 | 1011.4 |
| 20260905130051 | 72 | 226 | 0.0 | 0.0 | 0.00 | 0.00 | 0.00 | 96 | 1011.5 |
| 20260905125550 | 71 | 226 | 0.0 | 0.0 | 0.00 | 0.00 | 0.00 | 96 | 1011.6 |
| 20260905125051 | 71 | 226 | 0.0 | 0.0 | 0.00 | 0.00 | 0.00 | 96 | 1011.6 |
| 20260905124548 | 70 | 226 | 0.0 | 0.0 | 0.00 | 0.00 | 0.00 | 96 | 1011.7 |
| 20260905124047 | 70 | 226 | 0.0 | 0.0 | 0.00 | 0.00 | 0.00 | 96 | 1011.6 |
| 20260905123548 | 70 | 226 | 0.0 | 0.0 | 0.00 | 0.00 | 0.00 | 96 | 1011.5 |
| 20260905123047 | 70 | 226 | 0.0 | 0.0 | 0.00 | 0.00 | 0.00 | 96 | 1011.6 |
| 20260905122547 | 69 | 226 | 0.0 | 0.0 | 0.00 | 0.00 | 0.00 | 96 | 1011.5 |
| 20260905122047 | 69 | 226 | 0.0 | 0.0 | 0.00 | 0.00 | 0.00 | 96 | 1011.6 |
| 20260905121547 | 69 | 226 | 0.0 | 0.0 | 0.00 | 0.00 | 0.00 | 96 | 1011.5 |
| 20260905121046 | 69 | 226 | 0.0 | 0.0 | 0.00 | 0.00 | 0.00 | 96 | 1011.5 |
| 20260905120546 | 69 | 226 | 0.0 | 0.0 | 0.00 | 0.00 | 0.00 | 96 | 1011.4 |
| 20260905120046 | 69 | 226 | 0.0 | 0.0 | 0.00 | 0.00 | 0.00 | 96 | 1011.5 |
| 20260905115545 | 69 | 226 | 0.0 | 0.0 | 0.00 | 0.00 | 0.00 | 96 | 1011.5 |
| 20260905115046 | 69 | 226 | 0.0 | 0.0 | 0.00 | 0.00 | 0.00 | 95 | 1011.4 |
| 20260905114550 | 69 | 226 | 0.0 | 0.0 | 0.00 | 0.00 | 0.00 | 95 | 1011.3 |
| 20260905114046 | 69 | 226 | 0.0 | 0.0 | 0.00 | 0.00 | 0.00 | 95 | 1011.2 |
| 20260905113544 | 69 | 226 | 0.0 | 0.0 | 0.00 | 0.00 | 0.00 | 95 | 1011.2 |
| 20260905113043 | 69 | 226 | 0.0 | 0.0 | 0.00 | 0.00 | 0.00 | 95 | 1011.1 |
| 20260905112543 | 68 | 226 | 0.0 | 0.0 | 0.00 | 0.00 | 0.00 | 95 | 1011.1 |
| 20260905112043 | 68 | 226 | 0.0 | 0.0 | 0.00 | 0.00 | 0.00 | 95 | 1010.9 |
| 20260905111544 | 69 | 226 | 0.0 | 0.0 | 0.00 | 0.00 | 0.00 | 95 | 1010.9 |
| 20260905111042 | 69 | 226 | 0.0 | 0.0 | 0.00 | 0.00 | 0.00 | 95 | 1010.8 |
| 20260905110542 | 69 | 226 | 0.0 | 0.0 | 0.00 | 0.00 | 0.00 | 95 | 1010.8 |
| 20260905110041 | 69 | 226 | 0.0 | 0.0 | 0.00 | 0.00 | 0.00 | 95 | 1010.8 |
| 20260905105541 | 69 | 226 | 0.0 | 0.0 | 0.00 | 0.00 | 0.00 | 95 | 1010.7 |
| 20260905105042 | 69 | 226 | 0.0 | 0.0 | 0.00 | 0.00 | 0.00 | 95 | 1010.6 |
| 20260905104544 | 69 | 226 | 0.0 | 0.0 | 0.00 | 0.00 | 0.00 | 94 | 1010.7 |
| 20260905104039 | 69 | 226 | 0.0 | 0.0 | 0.00 | 0.00 | 0.00 | 94 | 1010.7 |
| 20260905103542 | 69 | 226 | 0.0 | 0.0 | 0.00 | 0.00 | 0.00 | 94 | 1010.7 |
| 20260905103040 | 69 | 226 | 0.0 | 0.0 | 0.00 | 0.00 | 0.00 | 94 | 1010.7 |
| 20260905102538 | 69 | 226 | 0.0 | 0.0 | 0.00 | 0.00 | 0.00 | 94 | 1010.6 |
| 20260905102039 | 69 | 226 | 0.0 | 0.0 | 0.00 | 0.00 | 0.00 | 94 | 1010.6 |
| 20260905101538 | 69 | 226 | 0.0 | 0.0 | 0.00 | 0.00 | 0.00 | 94 | 1010.6 |
| 20260905101037 | 69 | 226 | 0.0 | 0.0 | 0.00 | 0.00 | 0.00 | 94 | 1010.4 |
| 20260905100539 | 69 | 226 | 0.0 | 0.0 | 0.00 | 0.00 | 0.00 | 94 | 1010.3 |
| 20260905100037 | 69 | 226 | 0.0 | 0.0 | 0.00 | 0.00 | 0.00 | 94 | 1010.2 |
| 20260905095537 | 69 | 226 | 0.0 | 0.0 | 0.00 | 0.00 | 0.00 | 94 | 1010.2 |
| 20260905095036 | 70 | 226 | 0.0 | 0.0 | 0.00 | 0.00 | 0.00 | 94 | 1010.2 |
| 20260905094536 | 70 | 226 | 0.0 | 0.0 | 0.00 | 0.00 | 0.00 | 94 | 1010.2 |
| 20260905094035 | 70 | 226 | 0.0 | 0.0 | 0.00 | 0.00 | 0.00 | 94 | 1010.3 |
| 20260905093537 | 70 | 226 | 0.0 | 0.0 | 0.00 | 0.00 | 0.00 | 94 | 1010.3 |
| 20260905093038 | 70 | 226 | 0.0 | 0.0 | 0.00 | 0.00 | 0.00 | 93 | 1010.3 |
| 20260905092538 | 70 | 226 | 0.0 | 0.0 | 0.00 | 0.00 | 0.00 | 93 | 1010.4 |
| 20260905092034 | 70 | 226 | 0.0 | 0.0 | 0.00 | 0.00 | 0.00 | 93 | 1010.3 |
| 20260905091537 | 70 | 226 | 0.0 | 0.0 | 0.00 | 0.00 | 0.00 | 93 | 1010.3 |
| 20260905091034 | 70 | 226 | 0.0 | 0.0 | 0.00 | 0.00 | 0.00 | 93 | 1010.3 |
| 20260905090533 | 70 | 226 | 0.0 | 0.0 | 0.00 | 0.00 | 0.00 | 93 | 1010.3 |
| 20260905090044 | 70 | 226 | 0.0 | 0.0 | 0.00 | 0.00 | 0.00 | 93 | 1010.3 |
| 20260905085533 | 70 | 226 | 0.0 | 0.0 | 0.00 | 0.00 | 0.00 | 93 | 1010.3 |
| 20260905085032 | 70 | 226 | 0.0 | 0.0 | 0.00 | 0.00 | 0.00 | 93 | 1010.3 |
| 20260905084531 | 70 | 226 | 0.0 | 0.0 | 0.00 | 0.00 | 0.00 | 92 | 1010.4 |
| 20260905084035 | 71 | 226 | 0.0 | 0.0 | 0.00 | 0.00 | 0.00 | 92 | 1010.4 |
| 20260905083530 | 71 | 226 | 0.0 | 0.0 | 0.00 | 0.00 | 0.00 | 92 | 1010.3 |
| 20260905083034 | 71 | 226 | 0.0 | 0.0 | 0.00 | 0.00 | 0.00 | 92 | 1010.2 |
| 20260905082529 | 71 | 226 | 0.0 | 0.0 | 0.00 | 0.00 | 0.00 | 92 | 1010.3 |
| 20260905082030 | 71 | 226 | 0.0 | 0.0 | 0.00 | 0.00 | 0.00 | 92 | 1010.4 |
| 20260905081526 | 71 | 226 | 0.0 | 0.0 | 0.00 | 0.00 | 0.00 | 92 | 1010.5 |
| 20260905081027 | 71 | 226 | 0.0 | 0.0 | 0.00 | 0.00 | 0.00 | 92 | 1010.5 |
| 20260905080526 | 71 | 226 | 0.0 | 0.0 | 0.00 | 0.00 | 0.00 | 92 | 1010.6 |
| 20260905080028 | 71 | 226 | 0.0 | 0.0 | 0.00 | 0.00 | 0.00 | 92 | 1010.6 |
| 20260905075526 | 71 | 226 | 0.0 | 0.0 | 0.00 | 0.00 | 0.00 | 92 | 1010.7 |
| 20260905075026 | 71 | 226 | 0.0 | 0.0 | 0.00 | 0.00 | 0.00 | 92 | 1010.7 |
| 20260905074525 | 71 | 226 | 0.0 | 0.0 | 0.00 | 0.00 | 0.00 | 92 | 1010.7 |
| 20260905074025 | 71 | 226 | 0.0 | 0.0 | 0.00 | 0.00 | 0.00 | 92 | 1010.7 |
| 20260905073524 | 71 | 226 | 0.0 | 0.0 | 0.00 | 0.00 | 0.00 | 92 | 1010.7 |
| 20260905073026 | 71 | 226 | 0.0 | 0.0 | 0.00 | 0.00 | 0.00 | 92 | 1010.7 |
| 20260905072525 | 71 | 226 | 0.0 | 0.0 | 0.00 | 0.00 | 0.00 | 92 | 1010.7 |
| 20260905072023 | 71 | 226 | 0.0 | 0.0 | 0.00 | 0.00 | 0.00 | 92 | 1011.0 |
| 20260905071526 | 71 | 226 | 0.0 | 0.0 | 0.00 | 0.00 | 0.00 | 91 | 1011.2 |
| 20260905071020 | 71 | 296 | 0.0 | 0.0 | 0.00 | 0.00 | 0.00 | 91 | 1011.5 |
| 20260905070519 | 71 | 298 | 0.0 | 0.0 | 0.00 | 0.00 | 0.00 | 91 | 1011.4 |
| 20260905070020 | 71 | 297 | 0.0 | 0.0 | 0.00 | 0.00 | 0.00 | 91 | 1011.5 |
| 20260905065518 | 72 | 297 | 0.0 | 0.0 | 0.00 | 0.00 | 0.00 | 91 | 1011.3 |
| 20260905065021 | 72 | 297 | 0.0 | 0.0 | 0.00 | 0.00 | 0.00 | 91 | 1011.4 |
| 20260905064518 | 72 | 297 | 0.0 | 0.0 | 0.00 | 0.00 | 0.00 | 90 | 1011.6 |
| 20260905064019 | 72 | 297 | 0.0 | 0.0 | 0.00 | 0.00 | 0.00 | 90 | 1011.5 |
| 20260905063520 | 72 | 297 | 0.0 | 0.0 | 0.00 | 0.00 | 0.00 | 90 | 1011.7 |
| 20260905063016 | 72 | 297 | 0.0 | 0.0 | 0.00 | 0.00 | 0.00 | 90 | 1011.9 |
| 20260905062514 | 72 | 297 | 0.0 | 0.0 | 0.00 | 0.00 | 0.00 | 90 | 1012.0 |
| 20260905062014 | 72 | 297 | 0.0 | 0.0 | 0.00 | 0.00 | 0.00 | 90 | 1011.9 |
| 20260905061516 | 72 | 297 | 0.0 | 0.0 | 0.00 | 0.00 | 0.00 | 90 | 1012.1 |
| 20260905061012 | 72 | 297 | 0.0 | 0.0 | 0.00 | 0.00 | 0.00 | 90 | 1012.2 |
| 20260905060511 | 72 | 297 | 0.0 | 0.0 | 0.00 | 0.00 | 0.00 | 89 | 1012.2 |
| 20260905060012 | 72 | 297 | 0.0 | 0.0 | 0.00 | 0.00 | 0.00 | 89 | 1012.4 |
| 20260905055511 | 72 | 301 | 0.0 | 0.0 | 0.00 | 0.00 | 0.00 | 89 | 1012.6 |
| 20260905055012 | 72 | 298 | 0.0 | 0.0 | 0.00 | 0.00 | 0.00 | 89 | 1012.7 |
| 20260905054505 | 72 | 297 | 0.0 | 0.0 | 0.00 | 0.00 | 0.00 | 89 | 1012.6 |
| 20260905054007 | 72 | 297 | 0.0 | 0.0 | 0.00 | 0.00 | 0.00 | 89 | 1012.6 |
| 20260905053504 | 72 | 297 | 0.0 | 0.0 | 0.00 | 0.00 | 0.00 | 89 | 1012.5 |
| 20260905053003 | 72 | 297 | 0.0 | 0.0 | 0.00 | 0.00 | 0.00 | 88 | 1012.6 |
| 20260905052603 | 72 | 296 | 0.0 | 0.0 | 0.00 | 0.00 | 0.00 | 88 | 1012.4 |
| 20260905052003 | 72 | 298 | 0.0 | 0.0 | 0.00 | 0.00 | 0.00 | 88 | 1012.6 |
| 20260905051606 | 72 | 298 | 0.0 | 0.0 | 0.00 | 0.00 | 0.00 | 88 | 1012.6 |
| 20260905051004 | 72 | 298 | 0.0 | 0.0 | 0.00 | 0.00 | 0.00 | 88 | 1012.7 |
| 20260905050603 | 72 | 298 | 0.0 | 0.0 | 0.00 | 0.00 | 0.00 | 88 | 1012.7 |
| 20260905050004 | 73 | 298 | 0.0 | 0.0 | 0.00 | 0.00 | 0.00 | 88 | 1012.7 |
| 20260905045604 | 73 | 298 | 0.0 | 0.0 | 0.00 | 0.00 | 0.00 | 88 | 1012.9 |
| 20260905045004 | 73 | 295 | 0.0 | 0.0 | 0.00 | 0.00 | 0.00 | 88 | 1013.0 |
| 20260905044604 | 73 | 295 | 0.0 | 0.0 | 0.00 | 0.00 | 0.00 | 88 | 1013.0 |
| 20260905044003 | 73 | 295 | 0.0 | 0.0 | 0.00 | 0.00 | 0.00 | 88 | 1013.0 |
| 20260905043603 | 73 | 295 | 0.0 | 0.0 | 0.00 | 0.00 | 0.00 | 88 | 1013.0 |
| 20260905043004 | 73 | 293 | 0.0 | 0.0 | 0.00 | 0.00 | 0.00 | 87 | 1013.0 |
| 20260905042604 | 73 | 293 | 0.0 | 0.0 | 0.00 | 0.00 | 0.00 | 87 | 1013.0 |
| 20260905042003 | 73 | 293 | 0.0 | 0.0 | 0.00 | 0.00 | 0.00 | 87 | 1012.9 |
| 20260905041603 | 73 | 293 | 0.0 | 0.0 | 0.00 | 0.00 | 0.00 | 87 | 1012.9 |
| 20260905041003 | 73 | 293 | 0.0 | 0.0 | 0.00 | 0.00 | 0.00 | 87 | 1012.9 |
| 20260905040604 | 73 | 293 | 0.0 | 0.0 | 0.00 | 0.00 | 0.00 | 87 | 1012.8 |
| 20260905040007 | 73 | 293 | 0.0 | 0.0 | 0.00 | 0.00 | 0.00 | 87 | 1012.9 |
| 20260905035602 | 73 | 293 | 0.0 | 0.0 | 0.00 | 0.00 | 0.00 | 87 | 1012.8 |
| 20260905035003 | 73 | 293 | 0.0 | 0.0 | 0.00 | 0.00 | 0.00 | 86 | 1012.8 |
| 20260905034604 | 73 | 293 | 0.0 | 0.0 | 0.00 | 0.00 | 0.00 | 86 | 1012.7 |
| 20260905034003 | 73 | 293 | 0.0 | 0.0 | 0.00 | 0.00 | 0.00 | 86 | 1012.6 |
| 20260905033603 | 73 | 293 | 0.0 | 0.0 | 0.00 | 0.00 | 0.00 | 86 | 1012.5 |
| 20260905033003 | 73 | 292 | 0.0 | 0.0 | 0.00 | 0.00 | 0.00 | 86 | 1012.4 |
| 20260905032604 | 73 | 292 | 0.0 | 0.0 | 0.00 | 0.00 | 0.00 | 85 | 1012.4 |
| 20260905032003 | 74 | 292 | 0.0 | 0.0 | 0.00 | 0.00 | 0.00 | 85 | 1012.2 |
| 20260905031617 | 74 | 292 | 0.0 | 0.0 | 0.00 | 0.00 | 0.00 | 85 | 1012.3 |
| 20260905031003 | 74 | 292 | 0.0 | 0.0 | 0.00 | 0.00 | 0.00 | 85 | 1012.2 |
| 20260905030603 | 74 | 292 | 0.0 | 0.0 | 0.00 | 0.00 | 0.00 | 84 | 1012.3 |
| 20260905030004 | 74 | 292 | 0.0 | 0.0 | 0.00 | 0.00 | 0.00 | 84 | 1012.3 |
| 20260905025602 | 74 | 292 | 0.0 | 0.0 | 0.00 | 0.00 | 0.00 | 84 | 1012.2 |
| 20260905025004 | 74 | 292 | 0.0 | 0.0 | 0.00 | 0.00 | 0.00 | 83 | 1012.2 |
| 20260905024604 | 74 | 292 | 0.0 | 0.0 | 0.00 | 0.00 | 0.00 | 83 | 1012.3 |
| 20260905024003 | 74 | 292 | 0.0 | 0.0 | 0.00 | 0.00 | 0.00 | 83 | 1012.5 |
| 20260905023604 | 74 | 292 | 0.0 | 0.0 | 0.00 | 0.00 | 0.00 | 83 | 1012.5 |
| 20260905023003 | 75 | 292 | 0.0 | 0.0 | 0.00 | 0.00 | 0.00 | 82 | 1012.4 |
| 20260905022603 | 75 | 292 | 0.0 | 0.0 | 0.00 | 0.00 | 0.00 | 82 | 1012.4 |
| 20260905022006 | 75 | 292 | 0.0 | 0.0 | 0.00 | 0.00 | 0.00 | 82 | 1012.3 |
| 20260905021604 | 75 | 292 | 0.0 | 0.0 | 0.00 | 0.00 | 0.00 | 81 | 1012.4 |
| 20260905021104 | 75 | 292 | 0.0 | 0.0 | 0.00 | 0.00 | 0.00 | 81 | 1012.3 |
| 20260905020503 | 76 | 292 | 0.0 | 0.0 | 0.00 | 0.00 | 0.00 | 80 | 1012.2 |
| 20260905020012 | 76 | 292 | 0.0 | 0.0 | 0.00 | 0.00 | 0.00 | 80 | 1012.2 |
| 20260905015603 | 76 | 292 | 0.0 | 0.0 | 0.00 | 0.00 | 0.00 | 79 | 1012.1 |
| 20260905015103 | 76 | 292 | 0.0 | 0.0 | 0.00 | 0.00 | 0.00 | 79 | 1012.1 |
| 20260905014604 | 76 | 292 | 0.0 | 0.0 | 0.00 | 0.00 | 0.00 | 78 | 1012.1 |
| 20260905014103 | 77 | 292 | 0.0 | 0.0 | 0.00 | 0.00 | 0.00 | 77 | 1011.8 |
| 20260905013503 | 77 | 292 | 0.0 | 0.0 | 0.00 | 0.00 | 0.00 | 77 | 1011.8 |
| 20260905013006 | 77 | 292 | 0.0 | 0.0 | 0.00 | 0.00 | 0.00 | 76 | 1011.8 |
| 20260905012510 | 77 | 292 | 0.0 | 0.0 | 0.00 | 0.00 | 0.00 | 75 | 1011.8 |
| 20260905012105 | 77 | 292 | 0.0 | 0.0 | 0.00 | 0.00 | 0.00 | 74 | 1011.8 |
| 20260905011510 | 78 | 292 | 0.0 | 0.0 | 0.00 | 0.00 | 0.00 | 74 | 1011.9 |
| 20260905011011 | 78 | 292 | 0.0 | 0.0 | 0.00 | 0.00 | 0.00 | 73 | 1011.8 |
| 20260905010605 | 78 | 292 | 0.0 | 0.0 | 0.00 | 0.00 | 0.00 | 73 | 1011.8 |
| 20260905010005 | 79 | 292 | 0.0 | 0.0 | 0.00 | 0.00 | 0.00 | 72 | 1011.8 |
| 20260905005509 | 79 | 292 | 0.0 | 0.0 | 0.00 | 0.00 | 0.00 | 70 | 1011.7 |
| 20260905005104 | 79 | 292 | 0.0 | 0.0 | 0.00 | 0.00 | 0.00 | 70 | 1011.9 |
| 20260905004502 | 80 | 292 | 0.0 | 0.0 | 0.00 | 0.00 | 0.00 | 69 | 1011.9 |
| 20260905004012 | 80 | 292 | 0.0 | 0.0 | 0.00 | 0.00 | 0.00 | 69 | 1012.0 |
| 20260905003603 | 80 | 292 | 0.0 | 0.0 | 0.00 | 0.00 | 0.00 | 68 | 1012.0 |
| 20260905003004 | 81 | 295 | 0.0 | 0.0 | 0.00 | 0.00 | 0.00 | 67 | 1012.0 |
| 20260905002509 | 81 | 295 | 0.0 | 0.0 | 0.00 | 0.00 | 0.00 | 66 | 1012.2 |
| 20260905002103 | 81 | 295 | 0.0 | 0.0 | 0.00 | 0.00 | 0.00 | 65 | 1012.3 |
| 20260905001509 | 82 | 295 | 0.0 | 0.0 | 0.00 | 0.00 | 0.00 | 64 | 1012.3 |
| 20260905001009 | 82 | 295 | 0.0 | 0.0 | 0.00 | 0.00 | 0.00 | 63 | 1012.6 |
| 20260905000603 | 83 | 295 | 0.0 | 0.0 | 0.00 | 0.00 | 0.00 | 62 | 1012.7 |
| 20260905000009 | 83 | 294 | 0.0 | 0.0 | 0.00 | 0.00 | 0.00 | 61 | 1012.8 |
| 20260904235604 | 83 | 45 | 0.0 | 0.0 | 0.00 | 0.00 | 0.00 | 61 | 1012.9 |
| 20260904235003 | 84 | 39 | 0.0 | 0.0 | 0.00 | 0.00 | 0.00 | 60 | 1012.9 |
| 20260904234510 | 84 | 34 | 0.0 | 0.0 | 0.00 | 0.00 | 0.00 | 60 | 1012.8 |
| 20260904234103 | 84 | 145 | 0.0 | 0.0 | 0.00 | 0.00 | 0.00 | 59 | 1012.8 |
| 20260904233503 | 85 | 145 | 0.0 | 0.9 | 0.00 | 0.00 | 0.00 | 59 | 1012.6 |
| 20260904233009 | 85 | 151 | 0.0 | 0.9 | 0.00 | 0.00 | 0.00 | 59 | 1012.4 |
| 20260904232603 | 86 | 152 | 0.0 | 0.0 | 0.00 | 0.00 | 0.00 | 59 | 1012.3 |
| 20260904232003 | 86 | 153 | 0.0 | 0.0 | 0.00 | 0.00 | 0.00 | 59 | 1012.0 |
| 20260904231513 | 87 | 113 | 0.0 | 4.3 | 0.00 | 0.00 | 0.00 | 61 | 1012.0 |
| 20260904231103 | 87 | 28 | 0.0 | 4.3 | 0.00 | 0.00 | 0.00 | 59 | 1012.0 |
| 20260904230504 | 88 | 29 | 0.0 | 4.3 | 0.00 | 0.00 | 0.00 | 61 | 1011.9 |
| 20260904230023 | 88 | 68 | 0.0 | 4.3 | 0.00 | 0.00 | 0.00 | 63 | 1012.0 |
| 20260904225603 | 88 | 65 | 0.0 | 0.9 | 0.00 | 0.00 | 0.00 | 71 | 1012.0 |
| 20260904225002 | 89 | 193 | 0.0 | 0.0 | 0.00 | 0.00 | 0.00 | 70 | 1011.9 |
| 20260904224509 | 89 | 193 | 0.0 | 0.0 | 0.00 | 0.00 | 0.00 | 70 | 1011.7 |
| 20260904224105 | 89 | 193 | 0.0 | 0.0 | 0.00 | 0.00 | 0.00 | 69 | 1011.6 |
| 20260904223504 | 90 | 193 | 0.0 | 0.0 | 0.00 | 0.00 | 0.00 | 68 | 1011.7 |
| 20260904223010 | 90 | 193 | 0.0 | 0.0 | 0.00 | 0.00 | 0.00 | 67 | 1011.6 |
| 20260904222604 | 90 | 193 | 0.0 | 0.0 | 0.00 | 0.00 | 0.00 | 67 | 1011.6 |
| 20260904222003 | 91 | 193 | 0.0 | 0.0 | 0.00 | 0.00 | 0.00 | 65 | 1011.4 |
| 20260904221509 | 91 | 193 | 0.0 | 0.0 | 0.00 | 0.00 | 0.00 | 64 | 1011.5 |
| 20260904221103 | 91 | 193 | 0.0 | 0.0 | 0.00 | 0.00 | 0.00 | 63 | 1011.5 |
| 20260904220504 | 92 | 193 | 0.0 | 0.9 | 0.00 | 0.00 | 0.00 | 63 | 1011.3 |
| 20260904220010 | 92 | 193 | 0.0 | 0.9 | 0.00 | 0.00 | 0.00 | 62 | 1011.1 |
| 20260904215604 | 92 | 188 | 0.0 | 0.0 | 0.00 | 0.00 | 0.00 | 62 | 1010.9 |
| 20260904215002 | 93 | 183 | 0.0 | 0.9 | 0.00 | 0.00 | 0.00 | 60 | 1010.9 |
| 20260904214509 | 93 | 171 | 0.0 | 0.0 | 0.00 | 0.00 | 0.00 | 60 | 1010.9 |
| 20260904214103 | 94 | 173 | 0.0 | 0.9 | 0.00 | 0.00 | 0.00 | 57 | 1010.9 |
| 20260904213507 | 95 | 172 | 0.0 | 0.9 | 0.00 | 0.00 | 0.00 | 55 | 1010.9 |
| 20260904213009 | 95 | 134 | 0.0 | 0.0 | 0.00 | 0.00 | 0.00 | 54 | 1011.0 |
| 20260904212605 | 96 | 179 | 0.0 | 2.6 | 0.00 | 0.00 | 0.00 | 52 | 1011.2 |
| 20260904212005 | 97 | 181 | 0.0 | 0.9 | 0.00 | 0.00 | 0.00 | 51 | 1011.3 |
| 20260904211513 | 97 | 168 | 0.0 | 2.6 | 0.00 | 0.00 | 0.00 | 48 | 1011.3 |
| 20260904211014 | 98 | 191 | 0.0 | 5.2 | 0.00 | 0.00 | 0.00 | 47 | 1011.3 |
| 20260904210513 | 98 | 132 | 0.0 | 1.7 | 0.00 | 0.00 | 0.00 | 46 | 1011.4 |
| 20260904210026 | 99 | 193 | 0.0 | 5.2 | 0.00 | 0.00 | 0.00 | 49 | 1011.2 |
| 20260904205504 | 99 | 177 | 0.0 | 5.2 | 0.00 | 0.00 | 0.00 | 45 | 1011.2 |
| 20260904205007 | 99 | 178 | 0.0 | 3.5 | 0.00 | 0.00 | 0.00 | 48 | 1011.1 |
| 20260904204517 | 99 | 160 | 0.0 | 3.5 | 0.00 | 0.00 | 0.00 | 46 | 1010.9 |
| 20260904204014 | 99 | 169 | 0.0 | 3.5 | 0.00 | 0.00 | 0.00 | 45 | 1011.0 |
| 20260904203518 | 99 | 174 | 0.0 | 5.2 | 0.00 | 0.00 | 0.00 | 45 | 1011.0 |
| 20260904203104 | 99 | 157 | 0.9 | 5.2 | 0.00 | 0.00 | 0.00 | 44 | 1011.0 |
| 20260904202503 | 99 | 179 | 0.0 | 0.9 | 0.00 | 0.00 | 0.00 | 45 | 1011.0 |
| 20260904202006 | 99 | 176 | 0.0 | 3.5 | 0.00 | 0.00 | 0.00 | 46 | 1010.9 |
| 20260904201510 | 99 | 171 | 0.0 | 6.1 | 0.00 | 0.00 | 0.00 | 45 | 1011.0 |
| 20260904201015 | 99 | 198 | 0.0 | 6.1 | 0.00 | 0.00 | 0.00 | 45 | 1011.2 |
| 20260904200514 | 100 | 165 | 0.0 | 5.2 | 0.00 | 0.00 | 0.00 | 45 | 1011.2 |
| 20260904200039 | 100 | 229 | 0.0 | 0.9 | 0.00 | 0.00 | 0.00 | 44 | 1011.2 |
| 20260904195606 | 100 | 229 | 0.0 | 4.3 | 0.00 | 0.00 | 0.00 | 43 | 1011.3 |
| 20260904195106 | 100 | 164 | 0.9 | 7.0 | 0.00 | 0.00 | 0.00 | 44 | 1011.4 |
| 20260904194617 | 100 | 240 | 0.9 | 7.0 | 0.00 | 0.00 | 0.00 | 44 | 1011.4 |
| 20260904194010 | 99 | 195 | 0.0 | 2.6 | 0.00 | 0.00 | 0.00 | 44 | 1011.7 |
| 20260904193511 | 99 | 198 | 0.0 | 3.5 | 0.00 | 0.00 | 0.00 | 47 | 1011.8 |
| 20260904193017 | 98 | 228 | 0.0 | 3.5 | 0.00 | 0.00 | 0.00 | 50 | 1011.9 |
| 20260904192519 | 98 | 185 | 0.0 | 3.5 | 0.00 | 0.00 | 0.00 | 48 | 1012.0 |
| 20260904192016 | 98 | 219 | 0.0 | 3.5 | 0.00 | 0.00 | 0.00 | 49 | 1012.1 |
| 20260904191603 | 98 | 183 | 0.0 | 4.3 | 0.00 | 0.00 | 0.00 | 47 | 1012.2 |
| 20260904191103 | 98 | 168 | 1.7 | 5.2 | 0.00 | 0.00 | 0.00 | 47 | 1012.3 |
| 20260904190503 | 98 | 276 | 0.9 | 5.2 | 0.00 | 0.00 | 0.00 | 48 | 1012.3 |
| 20260904190010 | 97 | 183 | 0.0 | 4.3 | 0.00 | 0.00 | 0.00 | 49 | 1012.6 |
| 20260904185511 | 97 | 179 | 0.0 | 4.3 | 0.00 | 0.00 | 0.00 | 50 | 1012.6 |
| 20260904185023 | 97 | 174 | 0.0 | 2.6 | 0.00 | 0.00 | 0.00 | 48 | 1012.7 |